Alpha, Michigan
Current Conditions -  °F | °C
As of 12:54 AM on Tuesday 21 Oct 2014 (Local Time) from KIMT Reporting Station
Overcast Overcast  
Wind Chill: 36°   Ceiling: 1200
Heat Index: 41°   Visibility: 10mi
Dew Point: 38°   Wind: 8mph
Humidity: 89%   Direction: 340°NNW
Pressure: 30.06"   Gusts: NA
Location:  46.04°N, 88.38°W
Report Text: KIMT 210554Z AUTO 34007KT 10SM BKN012 OVC018 05/03 A3006 RMK AO2 SLP188 T00500033 10072 20050 400940028 51012
Loading
Personal Weather Stations






























Interactive Weather Map New forecast layout! Learn more

10-Day Weather Forecast

Advertisements
Track Severe Weather on mobile